sensor_id;sensor_type;location;lat;lon;timestamp;pressure;altitude;pressure_sealevel;temperature;humidity
64544;BME280;50936;51.660;5.616;2023-02-16T00:00:22;102051.97;;;6.05;100.00
64544;BME280;50936;51.660;5.616;2023-02-16T00:02:54;102051.16;;;6.03;100.00
64544;BME280;50936;51.660;5.616;2023-02-16T00:05:27;102052.19;;;5.97;100.00
64544;BME280;50936;51.660;5.616;2023-02-16T00:08:00;102051.31;;;5.95;100.00
64544;BME280;50936;51.660;5.616;2023-02-16T00:10:32;102048.69;;;5.93;100.00
64544;BME280;50936;51.660;5.616;2023-02-16T00:13:02;102043.47;;;5.89;100.00
64544;BME280;50936;51.660;5.616;2023-02-16T00:16:12;102048.88;;;5.87;100.00
64544;BME280;50936;51.660;5.616;2023-02-16T00:18:44;102044.50;;;5.85;100.00
64544;BME280;50936;51.660;5.616;2023-02-16T00:21:12;102047.19;;;5.85;100.00
64544;BME280;50936;51.660;5.616;2023-02-16T00:23:39;102046.34;;;5.83;100.00
64544;BME280;50936;51.660;5.616;2023-02-16T00:26:21;102052.66;;;5.80;100.00
64544;BME280;50936;51.660;5.616;2023-02-16T00:28:55;102044.78;;;5.75;100.00
64544;BME280;50936;51.660;5.616;2023-02-16T00:31:27;102039.50;;;5.72;100.00
64544;BME280;50936;51.660;5.616;2023-02-16T00:33:58;102039.59;;;5.69;100.00
64544;BME280;50936;51.660;5.616;2023-02-16T00:36:30;102039.78;;;5.63;100.00
64544;BME280;50936;51.660;5.616;2023-02-16T00:38:57;102043.38;;;5.62;100.00
64544;BME280;50936;51.660;5.616;2023-02-16T00:41:24;102045.19;;;5.62;100.00
64544;BME280;50936;51.660;5.616;2023-02-16T00:44:15;102041.63;;;5.61;100.00
64544;BME280;50936;51.660;5.616;2023-02-16T00:46:46;102047.94;;;5.58;100.00
64544;BME280;50936;51.660;5.616;2023-02-16T00:49:17;102046.19;;;5.57;100.00
64544;BME280;50936;51.660;5.616;2023-02-16T00:51:47;102040.88;;;5.56;100.00
64544;BME280;50936;51.660;5.616;2023-02-16T00:54:15;102031.06;;;5.55;100.00
64544;BME280;50936;51.660;5.616;2023-02-16T00:56:42;102041.78;;;5.55;100.00
64544;BME280;50936;51.660;5.616;2023-02-16T00:59:17;102038.19;;;5.56;100.00
64544;BME280;50936;51.660;5.616;2023-02-16T01:01:48;102037.38;;;5.54;100.00
64544;BME280;50936;51.660;5.616;2023-02-16T01:04:21;102046.41;;;5.51;100.00
64544;BME280;50936;51.660;5.616;2023-02-16T01:06:49;102037.50;;;5.49;100.00
64544;BME280;50936;51.660;5.616;2023-02-16T01:09:34;102030.44;;;5.47;100.00
64544;BME280;50936;51.660;5.616;2023-02-16T01:12:20;102030.41;;;5.48;100.00
64544;BME280;50936;51.660;5.616;2023-02-16T01:14:51;102024.88;;;5.53;100.00
64544;BME280;50936;51.660;5.616;2023-02-16T01:17:22;102018.72;;;5.49;100.00
64544;BME280;50936;51.660;5.616;2023-02-16T01:19:52;102021.59;;;5.43;100.00
64544;BME280;50936;51.660;5.616;2023-02-16T01:22:19;102015.41;;;5.41;100.00
64544;BME280;50936;51.660;5.616;2023-02-16T01:24:46;102014.56;;;5.40;100.00
64544;BME280;50936;51.660;5.616;2023-02-16T01:27:13;102017.31;;;5.37;100.00
64544;BME280;50936;51.660;5.616;2023-02-16T01:29:43;102027.16;;;5.37;100.00
64544;BME280;50936;51.660;5.616;2023-02-16T01:32:11;102017.34;;;5.36;100.00
64544;BME280;50936;51.660;5.616;2023-02-16T01:34:38;102020.97;;;5.35;100.00
64544;BME280;50936;51.660;5.616;2023-02-16T01:37:13;102012.13;;;5.31;100.00
64544;BME280;50936;51.660;5.616;2023-02-16T01:39:42;102010.38;;;5.30;100.00
64544;BME280;50936;51.660;5.616;2023-02-16T01:42:28;102008.53;;;5.32;100.00
64544;BME280;50936;51.660;5.616;2023-02-16T01:45:14;102000.63;;;5.28;100.00
64544;BME280;50936;51.660;5.616;2023-02-16T01:47:55;102003.44;;;5.23;100.00
64544;BME280;50936;51.660;5.616;2023-02-16T01:50:51;101998.16;;;5.20;100.00
64544;BME280;50936;51.660;5.616;2023-02-16T01:53:30;101989.38;;;5.15;100.00
64544;BME280;50936;51.660;5.616;2023-02-16T01:56:34;101980.59;;;5.10;100.00
64544;BME280;50936;51.660;5.616;2023-02-16T02:01:51;101972.69;;;5.05;100.00
64544;BME280;50936;51.660;5.616;2023-02-16T02:04:39;101979.81;;;5.06;100.00
64544;BME280;50936;51.660;5.616;2023-02-16T02:07:36;101982.59;;;5.01;100.00
64544;BME280;50936;51.660;5.616;2023-02-16T02:10:20;101984.56;;;4.96;100.00
64544;BME280;50936;51.660;5.616;2023-02-16T02:13:04;101988.22;;;4.92;100.00
64544;BME280;50936;51.660;5.616;2023-02-16T02:15:37;101984.72;;;4.90;100.00
64544;BME280;50936;51.660;5.616;2023-02-16T02:18:04;101978.56;;;4.87;100.00
64544;BME280;50936;51.660;5.616;2023-02-16T02:21:25;101975.84;;;4.88;100.00
64544;BME280;50936;51.660;5.616;2023-02-16T02:24:04;101969.66;;;4.86;100.00
64544;BME280;50936;51.660;5.616;2023-02-16T02:30:00;101965.28;;;4.84;100.00
64544;BME280;50936;51.660;5.616;2023-02-16T02:33:14;101974.31;;;4.78;100.00
64544;BME280;50936;51.660;5.616;2023-02-16T02:38:55;101968.97;;;4.78;100.00
64544;BME280;50936;51.660;5.616;2023-02-16T02:45:01;101954.75;;;4.76;100.00
64544;BME280;50936;51.660;5.616;2023-02-16T02:47:45;101960.09;;;4.76;100.00
64544;BME280;50936;51.660;5.616;2023-02-16T02:50:37;101954.75;;;4.76;100.00
64544;BME280;50936;51.660;5.616;2023-02-16T02:53:35;101955.66;;;4.76;100.00
64544;BME280;50936;51.660;5.616;2023-02-16T02:56:07;101946.75;;;4.74;100.00
64544;BME280;50936;51.660;5.616;2023-02-16T02:59:02;101933.53;;;4.70;100.00
64544;BME280;50936;51.660;5.616;2023-02-16T03:01:55;101933.72;;;4.63;100.00
64544;BME280;50936;51.660;5.616;2023-02-16T03:04:27;101933.78;;;4.60;100.00
64544;BME280;50936;51.660;5.616;2023-02-16T03:06:59;101935.44;;;4.65;100.00
64544;BME280;50936;51.660;5.616;2023-02-16T03:09:28;101938.03;;;4.68;100.00
64544;BME280;50936;51.660;5.616;2023-02-16T03:11:56;101940.72;;;4.68;100.00
64544;BME280;50936;51.660;5.616;2023-02-16T03:14:48;101937.44;;;4.58;100.00
64544;BME280;50936;51.660;5.616;2023-02-16T03:17:23;101935.50;;;4.61;100.00
64544;BME280;50936;51.660;5.616;2023-02-16T03:20:14;101932.00;;;4.59;100.00
64544;BME280;50936;51.660;5.616;2023-02-16T03:23:02;101936.75;;;4.50;100.00
64544;BME280;50936;51.660;5.616;2023-02-16T03:25:50;101948.31;;;4.50;100.00
64544;BME280;50936;51.660;5.616;2023-02-16T03:28:40;101925.31;;;4.43;100.00
64544;BME280;50936;51.660;5.616;2023-02-16T03:31:31;101920.38;;;4.28;100.00
64544;BME280;50936;51.660;5.616;2023-02-16T03:34:01;101922.34;;;4.19;100.00
64544;BME280;50936;51.660;5.616;2023-02-16T03:36:30;101918.84;;;4.17;100.00
64544;BME280;50936;51.660;5.616;2023-02-16T03:39:00;101913.59;;;4.14;100.00
64544;BME280;50936;51.660;5.616;2023-02-16T03:41:34;101912.69;;;4.14;100.00
64544;BME280;50936;51.660;5.616;2023-02-16T03:44:07;101921.69;;;4.11;100.00
64544;BME280;50936;51.660;5.616;2023-02-16T03:46:34;101922.47;;;4.16;100.00
64544;BME280;50936;51.660;5.616;2023-02-16T03:49:01;101913.50;;;4.17;100.00
64544;BME280;50936;51.660;5.616;2023-02-16T03:51:29;101922.53;;;4.13;100.00
64544;BME280;50936;51.660;5.616;2023-02-16T03:53:56;101918.16;;;4.11;100.00
64544;BME280;50936;51.660;5.616;2023-02-16T03:56:23;101919.09;;;4.08;100.00
64544;BME280;50936;51.660;5.616;2023-02-16T03:58:50;101908.38;;;4.08;100.00
64544;BME280;50936;51.660;5.616;2023-02-16T04:01:17;101908.56;;;4.02;100.00
64544;BME280;50936;51.660;5.616;2023-02-16T04:03:44;101924.47;;;4.07;100.00
64544;BME280;50936;51.660;5.616;2023-02-16T04:06:11;101914.53;;;4.12;100.00
64544;BME280;50936;51.660;5.616;2023-02-16T04:08:38;101926.19;;;4.09;100.00
64544;BME280;50936;51.660;5.616;2023-02-16T04:11:05;101917.13;;;4.15;100.00
64544;BME280;50936;51.660;5.616;2023-02-16T04:13:52;101925.78;;;4.24;100.00
64544;BME280;50936;51.660;5.616;2023-02-16T04:16:19;101936.44;;;4.28;100.00
64544;BME280;50936;51.660;5.616;2023-02-16T04:18:46;101934.59;;;4.30;100.00
64544;BME280;50936;51.660;5.616;2023-02-16T04:21:12;101933.56;;;4.34;100.00
64544;BME280;50936;51.660;5.616;2023-02-16T04:23:39;101936.25;;;4.34;100.00
64544;BME280;50936;51.660;5.616;2023-02-16T04:26:06;101928.34;;;4.31;100.00
64544;BME280;50936;51.660;5.616;2023-02-16T04:28:33;101931.94;;;4.28;100.00
64544;BME280;50936;51.660;5.616;2023-02-16T04:31:00;101925.78;;;4.24;100.00
64544;BME280;50936;51.660;5.616;2023-02-16T04:33:27;101930.34;;;4.21;100.00
64544;BME280;50936;51.660;5.616;2023-02-16T04:35:54;101933.06;;;4.19;100.00
64544;BME280;50936;51.660;5.616;2023-02-16T04:38:21;101935.88;;;4.13;100.00
64544;BME280;50936;51.660;5.616;2023-02-16T04:40:48;101933.28;;;4.10;100.00
64544;BME280;50936;51.660;5.616;2023-02-16T04:43:14;101931.50;;;4.11;100.00
64544;BME280;50936;51.660;5.616;2023-02-16T04:45:41;101930.59;;;4.10;100.00
64544;BME280;50936;51.660;5.616;2023-02-16T04:48:08;101941.22;;;4.15;100.00
64544;BME280;50936;51.660;5.616;2023-02-16T04:50:35;101936.66;;;4.18;100.00
64544;BME280;50936;51.660;5.616;2023-02-16T04:53:02;101945.44;;;4.23;100.00
64544;BME280;50936;51.660;5.616;2023-02-16T04:55:29;101946.31;;;4.24;100.00
64544;BME280;50936;51.660;5.616;2023-02-16T04:57:56;101916.88;;;4.26;100.00
64544;BME280;50936;51.660;5.616;2023-02-16T05:00:23;101932.31;;;4.14;100.00
64544;BME280;50936;51.660;5.616;2023-02-16T05:02:50;101921.28;;;4.27;100.00
64544;BME280;50936;51.660;5.616;2023-02-16T05:05:17;101927.50;;;4.29;100.00
64544;BME280;50936;51.660;5.616;2023-02-16T05:07:44;101925.50;;;4.37;100.00
64544;BME280;50936;51.660;5.616;2023-02-16T05:10:11;101924.47;;;4.41;100.00
64544;BME280;50936;51.660;5.616;2023-02-16T05:12:38;101920.97;;;4.39;100.00
64544;BME280;50936;51.660;5.616;2023-02-16T05:15:23;101921.97;;;4.35;100.00
64544;BME280;50936;51.660;5.616;2023-02-16T05:17:50;101952.16;;;4.40;100.00
64544;BME280;50936;51.660;5.616;2023-02-16T05:20:17;101925.31;;;4.43;100.00
64544;BME280;50936;51.660;5.616;2023-02-16T05:22:44;101925.41;;;4.40;100.00
64544;BME280;50936;51.660;5.616;2023-02-16T05:25:12;101920.06;;;4.40;100.00
64544;BME280;50936;51.660;5.616;2023-02-16T05:27:38;101920.13;;;4.37;100.00
64544;BME280;50936;51.660;5.616;2023-02-16T05:30:06;101921.97;;;4.35;100.00
64544;BME280;50936;51.660;5.616;2023-02-16T05:32:33;101925.56;;;4.34;100.00
64544;BME280;50936;51.660;5.616;2023-02-16T05:35:00;101915.78;;;4.33;100.00
64544;BME280;50936;51.660;5.616;2023-02-16T05:37:27;101915.59;;;4.40;100.00
64544;BME280;50936;51.660;5.616;2023-02-16T05:39:54;101929.72;;;4.46;100.00
64544;BME280;50936;51.660;5.616;2023-02-16T05:42:20;101930.53;;;4.49;100.00
64544;BME280;50936;51.660;5.616;2023-02-16T05:44:47;101932.19;;;4.53;100.00
64544;BME280;50936;51.660;5.616;2023-02-16T05:47:14;101927.56;;;4.60;100.00
64544;BME280;50936;51.660;5.616;2023-02-16T05:49:41;101930.16;;;4.61;100.00
64544;BME280;50936;51.660;5.616;2023-02-16T05:52:08;101915.88;;;4.62;100.00
64544;BME280;50936;51.660;5.616;2023-02-16T05:54:35;101915.94;;;4.59;100.00
64544;BME280;50936;51.660;5.616;2023-02-16T05:57:02;101921.41;;;4.56;100.00
64544;BME280;50936;51.660;5.616;2023-02-16T05:59:29;101917.66;;;4.63;100.00
64544;BME280;50936;51.660;5.616;2023-02-16T06:01:55;101905.34;;;4.56;100.00
64544;BME280;50936;51.660;5.616;2023-02-16T06:04:22;101907.03;;;4.60;100.00
64544;BME280;50936;51.660;5.616;2023-02-16T06:06:50;101892.81;;;4.58;100.00
64544;BME280;50936;51.660;5.616;2023-02-16T06:09:16;101886.63;;;4.56;100.00
64544;BME280;50936;51.660;5.616;2023-02-16T06:11:43;101895.72;;;4.51;100.00
64544;BME280;50936;51.660;5.616;2023-02-16T06:14:16;101897.28;;;4.58;100.00
64544;BME280;50936;51.660;5.616;2023-02-16T06:16:49;101897.28;;;4.58;100.00
64544;BME280;50936;51.660;5.616;2023-02-16T06:19:19;101910.31;;;4.70;100.00
64544;BME280;50936;51.660;5.616;2023-02-16T06:21:47;101916.59;;;4.69;100.00
64544;BME280;50936;51.660;5.616;2023-02-16T06:24:14;101916.69;;;4.66;100.00
64544;BME280;50936;51.660;5.616;2023-02-16T06:26:41;101919.28;;;4.69;100.00
64544;BME280;50936;51.660;5.616;2023-02-16T06:29:08;101900.50;;;4.71;100.00
64544;BME280;50936;51.660;5.616;2023-02-16T06:31:35;101906.94;;;4.63;100.00
64544;BME280;50936;51.660;5.616;2023-02-16T06:34:03;101906.69;;;4.73;100.00
64544;BME280;50936;51.660;5.616;2023-02-16T06:36:32;101909.22;;;4.77;100.00
64544;BME280;50936;51.660;5.616;2023-02-16T06:38:59;101908.44;;;4.74;100.00
64544;BME280;50936;51.660;5.616;2023-02-16T06:41:26;101913.81;;;4.72;100.00
64544;BME280;50936;51.660;5.616;2023-02-16T06:44:11;101919.88;;;4.79;100.00
64544;BME280;50936;51.660;5.616;2023-02-16T06:46:41;101939.38;;;4.84;100.00
64544;BME280;50936;51.660;5.616;2023-02-16T06:49:12;101940.13;;;4.89;100.00
64544;BME280;50936;51.660;5.616;2023-02-16T06:51:40;101934.66;;;4.92;100.00
64544;BME280;50936;51.660;5.616;2023-02-16T06:54:07;101931.97;;;4.94;100.00
64544;BME280;50936;51.660;5.616;2023-02-16T06:56:34;101938.09;;;4.97;100.00
64544;BME280;50936;51.660;5.616;2023-02-16T06:59:03;101939.03;;;4.96;100.00
64544;BME280;50936;51.660;5.616;2023-02-16T07:01:31;101928.34;;;4.96;100.00
64544;BME280;50936;51.660;5.616;2023-02-16T07:03:58;101930.84;;;5.01;100.00
64544;BME280;50936;51.660;5.616;2023-02-16T07:06:27;101928.97;;;5.05;100.00
64544;BME280;50936;51.660;5.616;2023-02-16T07:08:54;101923.63;;;5.05;100.00
64544;BME280;50936;51.660;5.616;2023-02-16T07:11:22;101937.00;;;5.05;100.00
64544;BME280;50936;51.660;5.616;2023-02-16T07:13:49;101936.13;;;5.04;100.00
64544;BME280;50936;51.660;5.616;2023-02-16T07:16:16;101939.59;;;5.08;100.00
64544;BME280;50936;51.660;5.616;2023-02-16T07:18:43;101948.47;;;5.10;100.00
64544;BME280;50936;51.660;5.616;2023-02-16T07:21:12;101935.97;;;5.09;100.00
64544;BME280;50936;51.660;5.616;2023-02-16T07:23:39;101942.91;;;5.16;100.00
64544;BME280;50936;51.660;5.616;2023-02-16T07:26:06;101950.88;;;5.19;100.00
64544;BME280;50936;51.660;5.616;2023-02-16T07:28:33;101944.50;;;5.23;100.00
64544;BME280;50936;51.660;5.616;2023-02-16T07:31:08;101939.09;;;5.25;100.00
64544;BME280;50936;51.660;5.616;2023-02-16T07:33:36;101939.09;;;5.25;100.00
64544;BME280;50936;51.660;5.616;2023-02-16T07:36:04;101938.03;;;5.30;100.00
64544;BME280;50936;51.660;5.616;2023-02-16T07:38:32;101940.59;;;5.35;100.00
64544;BME280;50936;51.660;5.616;2023-02-16T07:41:00;101944.06;;;5.38;100.00
64544;BME280;50936;51.660;5.616;2023-02-16T07:43:27;101946.50;;;5.46;100.00
64544;BME280;50936;51.660;5.616;2023-02-16T07:45:54;101939.25;;;5.50;100.00
64544;BME280;50936;51.660;5.616;2023-02-16T07:48:22;101937.34;;;5.53;100.00
64544;BME280;50936;51.660;5.616;2023-02-16T07:50:49;101944.16;;;5.64;100.00
64544;BME280;50936;51.660;5.616;2023-02-16T07:53:16;101951.09;;;5.71;100.00
64544;BME280;50936;51.660;5.616;2023-02-16T07:55:44;101961.69;;;5.75;100.00
64544;BME280;50936;51.660;5.616;2023-02-16T07:58:12;101955.06;;;5.86;100.00
64544;BME280;50936;51.660;5.616;2023-02-16T08:01:04;101961.19;;;5.91;100.00
64544;BME280;50936;51.660;5.616;2023-02-16T08:03:33;101953.91;;;5.94;100.00
64544;BME280;50936;51.660;5.616;2023-02-16T08:06:01;101961.00;;;5.97;100.00
64544;BME280;50936;51.660;5.616;2023-02-16T08:08:29;101949.28;;;6.01;100.00
64544;BME280;50936;51.660;5.616;2023-02-16T08:10:57;101950.81;;;6.08;100.00
64544;BME280;50936;51.660;5.616;2023-02-16T08:13:23;101954.22;;;6.13;100.00
64544;BME280;50936;51.660;5.616;2023-02-16T08:15:50;101951.44;;;6.16;100.00
64544;BME280;50936;51.660;5.616;2023-02-16T08:18:17;101958.56;;;6.18;100.00
64544;BME280;50936;51.660;5.616;2023-02-16T08:20:44;101963.72;;;6.24;100.00
64544;BME280;50936;51.660;5.616;2023-02-16T08:23:29;101960.94;;;6.27;100.00
64544;BME280;50936;51.660;5.616;2023-02-16T08:25:57;101961.53;;;6.35;100.00
64544;BME280;50936;51.660;5.616;2023-02-16T08:28:24;101980.13;;;6.41;100.00
64544;BME280;50936;51.660;5.616;2023-02-16T08:30:53;101970.09;;;6.46;100.00
64544;BME280;50936;51.660;5.616;2023-02-16T08:33:20;101966.41;;;6.50;100.00
64544;BME280;50936;51.660;5.616;2023-02-16T08:35:47;101970.56;;;6.59;100.00
64544;BME280;50936;51.660;5.616;2023-02-16T08:38:14;101977.66;;;6.62;100.00
64544;BME280;50936;51.660;5.616;2023-02-16T08:40:47;101977.47;;;6.66;100.00
64544;BME280;50936;51.660;5.616;2023-02-16T08:43:14;101974.59;;;6.72;100.00
64544;BME280;50936;51.660;5.616;2023-02-16T08:45:47;101975.22;;;6.79;100.00
64544;BME280;50936;51.660;5.616;2023-02-16T08:48:14;101976.75;;;6.86;100.00
64544;BME280;50936;51.660;5.616;2023-02-16T08:50:43;101982.03;;;6.89;100.00
64544;BME280;50936;51.660;5.616;2023-02-16T08:53:21;101985.50;;;6.93;100.00
64544;BME280;50936;51.660;5.616;2023-02-16T08:55:55;101989.75;;;6.99;100.00
64544;BME280;50936;51.660;5.616;2023-02-16T08:58:24;101984.50;;;6.96;100.00
64544;BME280;50936;51.660;5.616;2023-02-16T09:00:52;101972.72;;;7.00;100.00
64544;BME280;50936;51.660;5.616;2023-02-16T09:03:19;101987.94;;;6.99;100.00
64544;BME280;50936;51.660;5.616;2023-02-16T09:05:48;101990.47;;;7.04;100.00
64544;BME280;50936;51.660;5.616;2023-02-16T09:08:16;101990.34;;;7.07;100.00
64544;BME280;50936;51.660;5.616;2023-02-16T09:10:44;101992.94;;;7.10;100.00
64544;BME280;50936;51.660;5.616;2023-02-16T09:13:11;101990.00;;;7.16;100.00
64544;BME280;50936;51.660;5.616;2023-02-16T09:15:45;102005.16;;;7.19;100.00
64544;BME280;50936;51.660;5.616;2023-02-16T09:18:13;102005.06;;;7.22;100.00
64544;BME280;50936;51.660;5.616;2023-02-16T09:20:42;101998.69;;;7.24;100.00
64544;BME280;50936;51.660;5.616;2023-02-16T09:23:12;101995.81;;;7.29;100.00
64544;BME280;50936;51.660;5.616;2023-02-16T09:25:40;102007.31;;;7.32;100.00
64544;BME280;50936;51.660;5.616;2023-02-16T09:28:09;102003.59;;;7.37;100.00
64544;BME280;50936;51.660;5.616;2023-02-16T09:30:37;102002.66;;;7.38;100.00
64544;BME280;50936;51.660;5.616;2023-02-16T09:33:05;101996.34;;;7.39;100.00
64544;BME280;50936;51.660;5.616;2023-02-16T09:35:32;102009.59;;;7.43;100.00
64544;BME280;50936;51.660;5.616;2023-02-16T09:37:58;102001.47;;;7.45;100.00
64544;BME280;50936;51.660;5.616;2023-02-16T09:40:25;102006.75;;;7.48;100.00
64544;BME280;50936;51.660;5.616;2023-02-16T09:43:23;102002.13;;;7.51;100.00
64544;BME280;50936;51.660;5.616;2023-02-16T09:46:11;102008.38;;;7.52;100.00
64544;BME280;50936;51.660;5.616;2023-02-16T09:48:43;101997.63;;;7.52;100.00
64544;BME280;50936;51.660;5.616;2023-02-16T09:51:35;101989.66;;;7.49;100.00
64544;BME280;50936;51.660;5.616;2023-02-16T09:54:22;101988.16;;;7.42;100.00
64544;BME280;50936;51.660;5.616;2023-02-16T09:57:32;101992.94;;;7.33;100.00
64544;BME280;50936;51.660;5.616;2023-02-16T10:05:57;101983.03;;;7.10;100.00
64544;BME280;50936;51.660;5.616;2023-02-16T10:08:44;101969.00;;;7.04;100.00
64544;BME280;50936;51.660;5.616;2023-02-16T10:11:24;101975.41;;;7.00;100.00
64544;BME280;50936;51.660;5.616;2023-02-16T10:14:38;101996.06;;;6.98;100.00
64544;BME280;50936;51.660;5.616;2023-02-16T10:17:18;101988.94;;;6.97;100.00
64544;BME280;50936;51.660;5.616;2023-02-16T10:20:00;101992.53;;;6.96;100.00
64544;BME280;50936;51.660;5.616;2023-02-16T10:22:46;101997.06;;;6.95;100.00
64544;BME280;50936;51.660;5.616;2023-02-16T10:28:31;101990.81;;;6.94;100.00
64544;BME280;50936;51.660;5.616;2023-02-16T10:31:21;101997.00;;;6.97;100.00
64544;BME280;50936;51.660;5.616;2023-02-16T10:39:55;101988.50;;;7.09;100.00
64544;BME280;50936;51.660;5.616;2023-02-16T10:42:56;102001.81;;;7.12;100.00
64544;BME280;50936;51.660;5.616;2023-02-16T10:45:51;102000.88;;;7.13;100.00
64544;BME280;50936;51.660;5.616;2023-02-16T10:48:22;101992.88;;;7.11;100.00
64544;BME280;50936;51.660;5.616;2023-02-16T10:51:05;101992.94;;;7.10;100.00
64544;BME280;50936;51.660;5.616;2023-02-16T10:54:01;101992.09;;;7.08;100.00
64544;BME280;50936;51.660;5.616;2023-02-16T10:56:53;101995.72;;;7.07;100.00
64544;BME280;50936;51.660;5.616;2023-02-16T10:59:44;101997.63;;;7.03;100.00
64544;BME280;50936;51.660;5.616;2023-02-16T11:02:34;101986.06;;;7.01;100.00
64544;BME280;50936;51.660;5.616;2023-02-16T11:08:00;101989.03;;;6.93;100.00
64544;BME280;50936;51.660;5.616;2023-02-16T11:10:46;102000.84;;;6.89;100.00
64544;BME280;50936;51.660;5.616;2023-02-16T11:13:25;101996.50;;;6.85;100.00
64544;BME280;50936;51.660;5.616;2023-02-16T11:15:59;102002.78;;;6.84;100.00
64544;BME280;50936;51.660;5.616;2023-02-16T11:18:44;101993.09;;;6.80;100.00
64544;BME280;50936;51.660;5.616;2023-02-16T11:21:15;101989.66;;;6.77;100.00
64544;BME280;50936;51.660;5.616;2023-02-16T11:23:43;101998.56;;;6.77;100.00
64544;BME280;50936;51.660;5.616;2023-02-16T11:26:25;101987.72;;;6.80;100.00
64544;BME280;50936;51.660;5.616;2023-02-16T11:29:06;101984.09;;;6.81;100.00
64544;BME280;50936;51.660;5.616;2023-02-16T11:31:44;101971.63;;;6.80;100.00
64544;BME280;50936;51.660;5.616;2023-02-16T11:34:23;101969.84;;;6.79;100.00
64544;BME280;50936;51.660;5.616;2023-02-16T11:37:09;101972.50;;;6.81;100.00
64544;BME280;50936;51.660;5.616;2023-02-16T11:39:45;101969.75;;;6.82;100.00
64544;BME280;50936;51.660;5.616;2023-02-16T11:44:56;101971.28;;;6.89;100.00
64544;BME280;50936;51.660;5.616;2023-02-16T11:47:28;101967.56;;;6.93;100.00
64544;BME280;50936;51.660;5.616;2023-02-16T11:50:27;101961.13;;;6.98;100.00
64544;BME280;50936;51.660;5.616;2023-02-16T11:55:37;101954.50;;;7.08;100.00
64544;BME280;50936;51.660;5.616;2023-02-16T11:58:19;101954.25;;;7.14;100.00
64544;BME280;50936;51.660;5.616;2023-02-16T12:00:57;101946.81;;;7.22;100.00
64544;BME280;50936;51.660;5.616;2023-02-16T12:03:51;101956.38;;;7.29;100.00
64544;BME280;50936;51.660;5.616;2023-02-16T12:09:48;101930.78;;;7.43;100.00
64544;BME280;50936;51.660;5.616;2023-02-16T12:15:15;101941.50;;;7.66;100.00
64544;BME280;50936;51.660;5.616;2023-02-16T12:23:44;101924.25;;;7.94;100.00
64544;BME280;50936;51.660;5.616;2023-02-16T12:29:36;101911.97;;;8.09;100.00
64544;BME280;50936;51.660;5.616;2023-02-16T12:41:23;101907.88;;;8.63;100.00
64544;BME280;50936;51.660;5.616;2023-02-16T12:44:39;101900.47;;;8.69;100.00
64544;BME280;50936;51.660;5.616;2023-02-16T12:47:22;101908.22;;;8.76;100.00
64544;BME280;50936;51.660;5.616;2023-02-16T12:49:59;101898.19;;;8.99;100.00
64544;BME280;50936;51.660;5.616;2023-02-16T13:04:04;101867.78;;;10.25;100.00
64544;BME280;50936;51.660;5.616;2023-02-16T13:06:58;101863.84;;;10.50;100.00
64544;BME280;50936;51.660;5.616;2023-02-16T13:09:43;101855.97;;;10.78;100.00
64544;BME280;50936;51.660;5.616;2023-02-16T13:12:47;101856.75;;;10.81;100.00
64544;BME280;50936;51.660;5.616;2023-02-16T13:15:25;101855.53;;;10.70;100.00
64544;BME280;50936;51.660;5.616;2023-02-16T13:18:08;101841.75;;;10.59;100.00
64544;BME280;50936;51.660;5.616;2023-02-16T13:21:06;101838.75;;;10.48;100.00
64544;BME280;50936;51.660;5.616;2023-02-16T13:24:12;101843.97;;;10.51;100.00
64544;BME280;50936;51.660;5.616;2023-02-16T13:30:06;101836.00;;;10.65;100.00
64544;BME280;50936;51.660;5.616;2023-02-16T13:47:05;101811.31;;;11.21;100.00
64544;BME280;50936;51.660;5.616;2023-02-16T13:49:40;101815.84;;;11.20;100.00
64544;BME280;50936;51.660;5.616;2023-02-16T13:52:32;101811.31;;;11.21;100.00
64544;BME280;50936;51.660;5.616;2023-02-16T13:55:20;101800.00;;;11.14;100.00
64544;BME280;50936;51.660;5.616;2023-02-16T14:05:33;101782.53;;;11.20;100.00
64544;BME280;50936;51.660;5.616;2023-02-16T14:13:33;101773.19;;;11.41;100.00
64544;BME280;50936;51.660;5.616;2023-02-16T14:18:57;101771.69;;;11.51;100.00
64544;BME280;50936;51.660;5.616;2023-02-16T14:21:34;101765.66;;;11.46;100.00
64544;BME280;50936;51.660;5.616;2023-02-16T14:24:33;101763.50;;;11.37;100.00
64544;BME280;50936;51.660;5.616;2023-02-16T14:27:06;101767.50;;;11.46;100.00
64544;BME280;50936;51.660;5.616;2023-02-16T14:29:58;101759.81;;;11.54;100.00
64544;BME280;50936;51.660;5.616;2023-02-16T14:32:32;101762.06;;;11.62;100.00
64544;BME280;50936;51.660;5.616;2023-02-16T14:35:23;101752.63;;;11.69;100.00
64544;BME280;50936;51.660;5.616;2023-02-16T14:38:06;101755.41;;;11.67;100.00
64544;BME280;50936;51.660;5.616;2023-02-16T14:41:06;101757.59;;;11.61;100.00
64544;BME280;50936;51.660;5.616;2023-02-16T14:43:51;101749.25;;;11.49;100.00
64544;BME280;50936;51.660;5.616;2023-02-16T14:58:53;101734.34;;;11.42;100.00
64544;BME280;50936;51.660;5.616;2023-02-16T15:01:21;101738.03;;;11.41;100.00
64544;BME280;50936;51.660;5.616;2023-02-16T15:03:55;101733.31;;;11.45;100.00
64544;BME280;50936;51.660;5.616;2023-02-16T15:06:34;101734.66;;;11.52;100.00
64544;BME280;50936;51.660;5.616;2023-02-16T15:09:21;101739.09;;;11.69;100.00
64544;BME280;50936;51.660;5.616;2023-02-16T15:11:56;101730.50;;;11.92;100.00
64544;BME280;50936;51.660;5.616;2023-02-16T15:14:59;101729.75;;;12.19;100.00
64544;BME280;50936;51.660;5.616;2023-02-16T15:17:43;101728.59;;;12.38;100.00
64544;BME280;50936;51.660;5.616;2023-02-16T15:23:16;101726.25;;;12.17;100.00
64544;BME280;50936;51.660;5.616;2023-02-16T15:26:27;101721.81;;;12.02;100.00
64544;BME280;50936;51.660;5.616;2023-02-16T15:28:57;101720.75;;;11.88;100.00